createdAt,value
2019-02-23T00:00:03.978Z,-1.54
2019-02-23T00:02:31.464Z,-1.54
2019-02-23T00:04:58.878Z,-1.66
2019-02-23T00:07:26.317Z,-1.66
2019-02-23T00:09:53.747Z,-1.88
2019-02-23T00:12:21.145Z,-2.09
2019-02-23T00:14:48.592Z,-2.19
2019-02-23T00:17:16.022Z,-2.28
2019-02-23T00:19:43.493Z,-2.43
2019-02-23T00:22:10.852Z,-2.57
2019-02-23T00:24:38.298Z,-2.49
2019-02-23T00:27:05.776Z,-2.55
2019-02-23T00:29:33.151Z,-2.76
2019-02-23T00:32:00.608Z,-2.85
2019-02-23T00:34:28.070Z,-2.90
2019-02-23T00:36:55.505Z,-3.07
2019-02-23T00:39:22.884Z,-3.06
2019-02-23T00:41:50.306Z,-2.90
2019-02-23T00:44:17.790Z,-2.85
2019-02-23T00:46:45.220Z,-2.98
2019-02-23T00:49:12.614Z,-3.13
2019-02-23T00:51:40.171Z,-3.26
2019-02-23T00:54:07.719Z,-3.26
2019-02-23T00:56:35.162Z,-3.42
2019-02-23T00:59:02.634Z,-3.47
2019-02-23T01:01:30.035Z,-3.47
2019-02-23T01:03:57.510Z,-3.53
2019-02-23T01:06:24.989Z,-3.60
2019-02-23T01:08:52.465Z,-3.76
2019-02-23T01:11:19.879Z,-3.92
2019-02-23T01:13:47.332Z,-4.09
2019-02-23T01:16:14.791Z,-3.92
2019-02-23T01:18:42.361Z,-3.92
2019-02-23T01:21:09.783Z,-4.05
2019-02-23T01:23:37.217Z,-4.10
2019-02-23T01:26:04.662Z,-4.20
2019-02-23T01:28:32.185Z,-4.23
2019-02-23T01:30:59.703Z,-4.23
2019-02-23T01:33:27.099Z,-4.33
2019-02-23T01:35:54.541Z,-4.31
2019-02-23T01:38:22.029Z,-4.31
2019-02-23T01:40:49.558Z,-4.31
2019-02-23T01:43:17.010Z,-4.38
2019-02-23T01:45:44.460Z,-4.40
2019-02-23T01:48:11.851Z,-4.43
2019-02-23T01:50:39.282Z,-4.50
2019-02-23T01:53:06.862Z,-4.50
2019-02-23T01:55:34.250Z,-4.49
2019-02-23T01:58:01.664Z,-4.57
2019-02-23T02:00:29.701Z,-4.41
2019-02-23T02:02:57.361Z,-4.41
2019-02-23T02:05:24.785Z,-4.44
2019-02-23T02:07:52.216Z,-4.46
2019-02-23T02:10:20.010Z,-4.28
2019-02-23T02:12:47.511Z,-4.43
2019-02-23T02:15:15.159Z,-4.43
2019-02-23T02:17:42.692Z,-4.45
2019-02-23T02:20:11.552Z,-4.62
2019-02-23T02:22:39.240Z,-4.63
2019-02-23T02:25:07.141Z,-4.70
2019-02-23T02:27:34.499Z,-4.72
2019-02-23T02:30:01.983Z,-4.67
2019-02-23T02:32:29.433Z,-4.67
2019-02-23T02:34:56.861Z,-4.70
2019-02-23T02:37:24.422Z,-4.53
2019-02-23T02:39:52.016Z,-4.53
2019-02-23T02:42:19.422Z,-4.73
2019-02-23T02:44:46.986Z,-4.74
2019-02-23T02:47:14.510Z,-4.83
2019-02-23T02:49:41.880Z,-4.89
2019-02-23T02:52:09.322Z,-4.94
2019-02-23T02:54:36.910Z,-4.98
2019-02-23T02:57:04.557Z,-4.98
2019-02-23T02:59:31.982Z,-4.77
2019-02-23T03:01:59.425Z,-4.77
2019-02-23T03:04:26.877Z,-4.61
2019-02-23T03:06:54.473Z,-4.52
2019-02-23T03:09:21.996Z,-4.67
2019-02-23T03:11:49.470Z,-4.67
2019-02-23T03:14:16.871Z,-4.76
2019-02-23T03:16:44.324Z,-4.81
2019-02-23T03:19:11.807Z,-4.78
2019-02-23T03:21:39.192Z,-4.83
2019-02-23T03:24:06.666Z,-4.66
2019-02-23T03:26:34.108Z,-5.00
2019-02-23T03:29:01.491Z,-5.02
2019-02-23T03:31:28.911Z,-5.10
2019-02-23T03:33:56.372Z,-4.75
2019-02-23T03:36:24.074Z,-4.68
2019-02-23T03:38:51.499Z,-4.36
2019-02-23T03:41:18.939Z,-4.65
2019-02-23T03:43:46.319Z,-4.65
2019-02-23T03:46:13.812Z,-4.23
2019-02-23T03:48:41.258Z,-4.23
2019-02-23T03:51:08.654Z,-3.76
2019-02-23T03:53:36.221Z,-3.53
2019-02-23T03:56:03.815Z,-3.00
2019-02-23T03:58:31.274Z,-3.00
2019-02-23T04:00:58.834Z,-2.88
2019-02-23T04:03:26.397Z,-2.88
2019-02-23T04:05:53.880Z,-2.95
2019-02-23T04:08:21.335Z,-2.95
2019-02-23T04:10:48.777Z,-2.72
2019-02-23T04:13:16.232Z,-3.03
2019-02-23T04:15:43.676Z,-2.93
2019-02-23T04:18:11.142Z,-3.10
2019-02-23T04:20:38.598Z,-3.02
2019-02-23T04:23:06.060Z,-3.63
2019-02-23T04:25:33.555Z,-2.66
2019-02-23T04:28:00.934Z,-2.66
2019-02-23T04:30:28.478Z,-2.88
2019-02-23T04:32:55.944Z,-3.19
2019-02-23T04:35:23.446Z,-3.40
2019-02-23T04:37:50.847Z,-3.61
2019-02-23T04:40:18.321Z,-3.89
2019-02-23T04:42:45.809Z,-3.89
2019-02-23T04:45:13.287Z,-3.78
2019-02-23T04:47:41.079Z,-3.98
2019-02-23T04:50:08.806Z,-3.65
2019-02-23T04:52:36.298Z,-3.86
2019-02-23T04:55:04.113Z,-3.77
2019-02-23T04:57:31.794Z,-3.95
2019-02-23T04:59:59.354Z,-3.95
2019-02-23T05:02:26.777Z,-3.89
2019-02-23T05:04:54.272Z,-3.88
2019-02-23T05:07:21.782Z,-3.60
2019-02-23T05:09:49.281Z,-3.21
2019-02-23T05:12:16.938Z,-3.13
2019-02-23T05:14:44.844Z,-2.95
2019-02-23T05:17:12.399Z,-3.17
2019-02-23T05:19:39.908Z,-3.37
2019-02-23T05:22:07.601Z,-3.62
2019-02-23T05:24:35.359Z,-3.71
2019-02-23T05:27:02.844Z,-3.71
2019-02-23T05:29:30.571Z,-3.47
2019-02-23T05:31:58.392Z,-3.47
2019-02-23T05:34:25.924Z,-3.78
2019-02-23T05:36:53.502Z,-4.00
2019-02-23T05:39:20.938Z,-4.30
2019-02-23T05:41:48.430Z,-4.21
2019-02-23T05:44:15.911Z,-4.26
2019-02-23T05:46:43.881Z,-4.48
2019-02-23T05:49:11.408Z,-4.57
2019-02-23T05:51:39.283Z,-4.18
2019-02-23T05:54:07.036Z,-4.18
2019-02-23T05:56:34.632Z,-4.41
2019-02-23T05:59:02.450Z,-4.28
2019-02-23T06:01:30.506Z,-4.28
2019-02-23T06:03:58.160Z,-4.50
2019-02-23T06:06:25.658Z,-3.79
2019-02-23T06:08:53.194Z,-3.79
2019-02-23T06:11:20.733Z,-3.66
2019-02-23T06:13:48.236Z,-3.71
2019-02-23T06:16:15.689Z,-3.98
2019-02-23T06:18:43.257Z,-4.31
2019-02-23T06:21:10.800Z,-4.21
2019-02-23T06:23:38.415Z,-4.30
2019-02-23T06:26:05.965Z,-4.30
2019-02-23T06:28:33.538Z,-4.47
2019-02-23T06:31:01.054Z,-3.93
2019-02-23T06:33:28.484Z,-3.93
2019-02-23T06:35:56.088Z,-3.77
2019-02-23T06:38:23.646Z,-4.10
2019-02-23T06:40:51.090Z,-4.25
2019-02-23T06:43:18.603Z,-4.34
2019-02-23T06:45:46.385Z,-4.32
2019-02-23T06:48:13.784Z,-4.18
2019-02-23T06:50:41.813Z,-4.18
2019-02-23T06:53:09.334Z,-4.34
2019-02-23T06:55:36.819Z,-4.30
2019-02-23T06:58:04.440Z,-4.30
2019-02-23T07:00:32.109Z,-4.27
2019-02-23T07:02:59.648Z,-4.19
2019-02-23T07:05:27.166Z,-4.38
2019-02-23T07:07:54.714Z,-3.96
2019-02-23T07:10:22.680Z,-4.04
2019-02-23T07:12:50.146Z,-4.04
2019-02-23T07:15:17.745Z,-3.82
2019-02-23T07:17:45.261Z,-3.99
2019-02-23T07:20:12.957Z,-3.35
2019-02-23T07:22:40.434Z,-3.13
2019-02-23T07:25:08.180Z,-3.23
2019-02-23T07:27:35.742Z,-2.99
2019-02-23T07:30:03.562Z,-2.58
2019-02-23T07:32:31.065Z,-2.70
2019-02-23T07:34:58.512Z,-2.30
2019-02-23T07:37:25.986Z,-2.17
2019-02-23T07:39:53.573Z,-2.49
2019-02-23T07:42:21.087Z,-2.44
2019-02-23T07:44:48.707Z,-2.59
2019-02-23T07:47:16.256Z,-2.49
2019-02-23T07:49:43.911Z,-2.60
2019-02-23T07:52:11.529Z,-2.70
2019-02-23T07:54:38.988Z,-2.77
2019-02-23T07:57:06.546Z,-3.10
2019-02-23T07:59:34.106Z,-3.70
2019-02-23T08:02:02.698Z,-3.66
2019-02-23T08:04:30.198Z,-2.99
2019-02-23T08:06:57.761Z,-2.67
2019-02-23T08:09:25.209Z,-2.58
2019-02-23T08:11:53.348Z,-3.47
2019-02-23T08:14:20.907Z,-3.47
2019-02-23T08:16:48.567Z,-3.37
2019-02-23T08:19:16.047Z,-3.19
2019-02-23T08:21:44.186Z,-3.03
2019-02-23T08:24:11.701Z,-3.16
2019-02-23T08:26:40.375Z,-3.19
2019-02-23T08:29:07.874Z,-3.60
2019-02-23T08:31:35.460Z,-3.60
2019-02-23T08:34:02.912Z,-3.25
2019-02-23T08:36:30.624Z,-2.95
2019-02-23T08:38:58.184Z,-2.95
2019-02-23T08:41:25.677Z,-2.63
2019-02-23T08:43:53.111Z,-2.79
2019-02-23T08:46:20.641Z,-2.48
2019-02-23T08:48:48.789Z,-2.78
2019-02-23T08:51:16.283Z,-3.07
2019-02-23T08:53:43.826Z,-3.19
2019-02-23T08:56:11.364Z,-2.88
2019-02-23T08:58:39.767Z,-2.83
2019-02-23T09:01:08.662Z,-2.96
2019-02-23T09:03:36.425Z,-2.96
2019-02-23T09:06:03.847Z,-2.56
2019-02-23T09:08:31.402Z,-1.99
2019-02-23T09:10:59.598Z,-2.55
2019-02-23T09:13:27.192Z,-2.08
2019-02-23T09:15:54.723Z,-2.34
2019-02-23T09:18:22.213Z,-2.49
2019-02-23T09:20:51.800Z,-2.12
2019-02-23T09:23:19.329Z,-1.38
2019-02-23T09:25:46.865Z,-1.86
2019-02-23T09:28:14.265Z,-1.86
2019-02-23T09:30:41.845Z,-1.99
2019-02-23T09:33:09.306Z,-1.99
2019-02-23T09:35:36.774Z,-2.07
2019-02-23T09:38:04.370Z,-1.84
2019-02-23T09:40:31.947Z,-1.27
2019-02-23T09:42:59.426Z,-1.32
2019-02-23T09:45:26.831Z,-1.12
2019-02-23T09:47:54.555Z,-1.33
2019-02-23T09:50:22.222Z,-1.26
2019-02-23T09:52:50.206Z,-1.18
2019-02-23T09:55:18.181Z,-1.17
2019-02-23T09:57:45.941Z,-0.78
2019-02-23T10:00:13.637Z,-0.90
2019-02-23T10:02:41.115Z,-0.77
2019-02-23T10:05:08.646Z,-0.70
2019-02-23T10:07:36.222Z,-0.77
2019-02-23T10:10:04.238Z,-0.45
2019-02-23T10:12:32.055Z,-0.46
2019-02-23T10:14:59.510Z,-0.94
2019-02-23T10:17:27.105Z,-1.63
2019-02-23T10:19:54.592Z,-1.71
2019-02-23T10:22:22.075Z,-1.71
2019-02-23T10:24:49.538Z,-1.76
2019-02-23T10:27:17.125Z,-2.01
2019-02-23T10:29:44.581Z,-1.90
2019-02-23T10:32:11.951Z,-1.87
2019-02-23T10:34:39.499Z,-1.41
2019-02-23T10:37:06.953Z,-1.75
2019-02-23T10:39:34.328Z,-2.12
2019-02-23T10:42:01.841Z,-1.87
2019-02-23T10:44:29.354Z,-1.84
2019-02-23T10:46:56.761Z,-1.67
2019-02-23T10:49:24.219Z,-1.92
2019-02-23T10:51:51.682Z,-1.99
2019-02-23T10:54:19.241Z,-2.14
2019-02-23T10:56:46.822Z,-2.12
2019-02-23T10:59:14.307Z,-1.75
2019-02-23T11:01:41.674Z,-1.01
2019-02-23T11:04:09.465Z,-0.61
2019-02-23T11:06:38.522Z,-0.84
2019-02-23T11:09:08.464Z,-0.97
2019-02-23T11:11:36.065Z,-1.93
2019-02-23T11:14:03.452Z,-1.93
2019-02-23T11:16:30.954Z,-2.19
2019-02-23T11:18:58.405Z,-2.36
2019-02-23T11:21:25.877Z,-1.73
2019-02-23T11:23:53.394Z,-1.73
2019-02-23T11:26:20.854Z,-1.73
2019-02-23T11:28:48.403Z,-1.54
2019-02-23T11:31:15.925Z,-1.75
2019-02-23T11:33:43.411Z,-1.68
2019-02-23T11:36:10.877Z,-1.24
2019-02-23T11:38:38.362Z,-1.16
2019-02-23T11:41:05.748Z,-0.87
2019-02-23T11:43:33.481Z,-1.08
2019-02-23T11:46:00.944Z,-1.31
2019-02-23T11:48:28.407Z,-1.42
2019-02-23T11:50:55.859Z,-1.27
2019-02-23T11:53:23.483Z,-1.11
2019-02-23T11:55:50.907Z,-0.94
2019-02-23T11:58:18.709Z,-1.41
2019-02-23T12:00:46.090Z,-1.66
2019-02-23T12:03:13.926Z,-1.79
2019-02-23T12:05:41.367Z,-1.84
2019-02-23T12:08:08.741Z,-2.01
2019-02-23T12:10:36.346Z,-2.26
2019-02-23T12:13:03.872Z,-2.56
2019-02-23T12:15:31.345Z,-2.55
2019-02-23T12:17:58.737Z,-2.52
2019-02-23T12:20:26.192Z,-2.72
2019-02-23T12:22:53.749Z,-2.59
2019-02-23T12:25:21.147Z,-2.43
2019-02-23T12:27:48.606Z,-2.07
2019-02-23T12:30:16.067Z,-1.88
2019-02-23T12:32:43.423Z,-2.06
2019-02-23T12:35:10.978Z,-2.25
2019-02-23T12:37:38.408Z,-2.24
2019-02-23T12:40:06.178Z,-2.18
2019-02-23T12:42:33.666Z,-2.41
2019-02-23T12:45:01.149Z,-2.48
2019-02-23T12:47:28.595Z,-1.83
2019-02-23T12:49:56.091Z,-1.92
2019-02-23T12:52:23.578Z,-2.72
2019-02-23T12:54:51.155Z,-2.72
2019-02-23T12:57:18.612Z,-2.77
2019-02-23T12:59:46.052Z,-2.52
2019-02-23T13:02:13.492Z,-2.52
2019-02-23T13:04:40.947Z,-2.42
2019-02-23T13:07:08.389Z,-2.51
2019-02-23T13:09:39.616Z,-2.51
2019-02-23T13:12:30.086Z,-2.62
2019-02-23T13:15:09.121Z,-2.62
2019-02-23T13:18:11.563Z,-2.63
2019-02-23T13:21:03.846Z,-2.32
2019-02-23T13:24:12.800Z,-2.35
2019-02-23T13:27:05.772Z,-2.04
2019-02-23T13:30:09.012Z,-2.05
2019-02-23T13:33:12.534Z,-2.20
2019-02-23T13:36:08.599Z,-1.94
2019-02-23T13:38:57.438Z,-2.33
2019-02-23T13:42:05.666Z,-2.70
2019-02-23T13:44:53.798Z,-2.79
2019-02-23T13:47:59.145Z,-3.02
2019-02-23T13:51:10.553Z,-2.86
2019-02-23T13:53:56.559Z,-2.54
2019-02-23T13:56:42.049Z,-2.21
2019-02-23T13:59:57.001Z,-1.80
2019-02-23T14:03:15.182Z,-1.69
2019-02-23T14:06:30.594Z,-1.86
2019-02-23T14:09:28.747Z,-1.96
2019-02-23T14:12:11.423Z,-2.30
2019-02-23T14:15:21.015Z,-2.52
2019-02-23T14:18:25.605Z,-2.64
2019-02-23T14:21:40.538Z,-3.09
2019-02-23T14:24:22.333Z,-3.32
2019-02-23T14:27:32.682Z,-3.45
2019-02-23T14:30:28.925Z,-3.71
2019-02-23T14:33:36.679Z,-3.55
2019-02-23T14:36:13.706Z,-3.55
2019-02-23T14:39:41.087Z,-3.64
2019-02-23T14:42:34.211Z,-3.68
2019-02-23T14:45:44.524Z,-3.68
2019-02-23T14:48:34.159Z,-3.79
2019-02-23T14:51:14.017Z,-3.87
2019-02-23T14:54:14.719Z,-3.81
2019-02-23T14:57:10.904Z,-3.73
2019-02-23T15:00:22.102Z,-3.73
2019-02-23T15:03:32.421Z,-3.76
2019-02-23T15:06:35.352Z,-3.79
2019-02-23T15:09:42.964Z,-3.79
2019-02-23T15:12:52.137Z,-3.74
2019-02-23T15:16:03.674Z,-4.00
2019-02-23T15:19:15.120Z,-4.08
2019-02-23T15:22:23.150Z,-3.93
2019-02-23T15:25:17.496Z,-3.95
2019-02-23T15:28:38.734Z,-4.06
2019-02-23T15:31:50.735Z,-4.06
2019-02-23T15:34:46.367Z,-4.39
2019-02-23T15:37:49.719Z,-4.34
2019-02-23T15:40:59.197Z,-4.34
2019-02-23T15:44:08.379Z,-4.25
2019-02-23T15:47:29.818Z,-4.49
2019-02-23T15:49:57.428Z,-4.57
2019-02-23T15:52:24.986Z,-4.57
2019-02-23T15:54:52.410Z,-4.64
2019-02-23T15:57:19.819Z,-4.74
2019-02-23T15:59:47.265Z,-4.75
2019-02-23T16:02:14.727Z,-4.77
2019-02-23T16:04:42.179Z,-4.68
2019-02-23T16:07:09.536Z,-4.78
2019-02-23T16:09:37.097Z,-4.75
2019-02-23T16:12:04.664Z,-4.60
2019-02-23T16:14:32.207Z,-4.78
2019-02-23T16:16:59.713Z,-4.83
2019-02-23T16:19:27.286Z,-4.90
2019-02-23T16:21:54.768Z,-5.04
2019-02-23T16:24:22.535Z,-5.19
2019-02-23T16:26:50.069Z,-5.15
2019-02-23T16:29:17.421Z,-5.08
2019-02-23T16:31:44.847Z,-5.20
2019-02-23T16:34:12.333Z,-5.19
2019-02-23T16:36:39.943Z,-5.13
2019-02-23T16:39:11.318Z,-5.01
2019-02-23T16:41:38.993Z,-5.10
2019-02-23T16:44:07.998Z,-5.08
2019-02-23T16:46:35.763Z,-4.84
2019-02-23T16:49:03.548Z,-4.91
2019-02-23T16:51:31.126Z,-4.79
2019-02-23T16:53:58.560Z,-4.81
2019-02-23T16:56:27.412Z,-4.81
2019-02-23T16:58:55.468Z,-4.90
2019-02-23T17:01:22.931Z,-4.91
2019-02-23T17:03:50.397Z,-4.94
2019-02-23T17:06:17.800Z,-4.94
2019-02-23T17:08:45.307Z,-5.01
2019-02-23T17:11:13.071Z,-4.91
2019-02-23T17:13:40.607Z,-4.96
2019-02-23T17:16:08.630Z,-5.01
2019-02-23T17:18:36.307Z,-5.02
2019-02-23T17:21:03.884Z,-4.79
2019-02-23T17:23:32.139Z,-4.63
2019-02-23T17:26:04.290Z,-4.69
2019-02-23T17:28:29.003Z,-4.82
2019-02-23T17:30:56.634Z,-4.70
2019-02-23T17:33:24.205Z,-4.89
2019-02-23T17:35:51.643Z,-4.72
2019-02-23T17:38:19.039Z,-4.88
2019-02-23T17:40:46.509Z,-4.94
2019-02-23T17:43:13.955Z,-5.02
2019-02-23T17:45:41.395Z,-4.89
2019-02-23T17:48:08.848Z,-4.89
2019-02-23T17:50:36.342Z,-5.08
2019-02-23T17:53:03.957Z,-5.08
2019-02-23T17:55:31.384Z,-4.50
2019-02-23T17:57:58.830Z,-4.58
2019-02-23T18:00:26.240Z,-4.46
2019-02-23T18:02:53.954Z,-4.38
2019-02-23T18:05:21.433Z,-4.52
2019-02-23T18:07:50.281Z,-4.61
2019-02-23T18:10:17.877Z,-4.52
2019-02-23T18:12:45.902Z,-4.69
2019-02-23T18:15:14.124Z,-4.90
2019-02-23T18:17:41.815Z,-5.00
2019-02-23T18:20:10.631Z,-4.96
2019-02-23T18:22:38.131Z,-4.77
2019-02-23T18:25:06.091Z,-4.74
2019-02-23T18:27:33.656Z,-4.77
2019-02-23T18:30:10.776Z,-4.82
2019-02-23T18:32:30.728Z,-4.51
2019-02-23T18:35:00.465Z,-4.51
2019-02-23T18:37:27.659Z,-4.48
2019-02-23T18:39:55.255Z,-4.60
2019-02-23T18:42:22.802Z,-4.75
2019-02-23T18:44:50.288Z,-4.82
2019-02-23T18:47:17.701Z,-4.89
2019-02-23T18:49:45.299Z,-4.78
2019-02-23T18:52:12.884Z,-5.02
2019-02-23T18:54:40.841Z,-5.00
2019-02-23T18:57:08.586Z,-4.96
2019-02-23T18:59:36.118Z,-5.05
2019-02-23T19:02:03.588Z,-4.57
2019-02-23T19:04:31.017Z,-4.14
2019-02-23T19:06:58.445Z,-3.97
2019-02-23T19:09:26.102Z,-3.97
2019-02-23T19:11:53.537Z,-4.26
2019-02-23T19:14:21.078Z,-4.79
2019-02-23T19:16:48.631Z,-4.55
2019-02-23T19:19:16.105Z,-4.55
2019-02-23T19:21:43.685Z,-4.35
2019-02-23T19:24:11.355Z,-4.35
2019-02-23T19:26:38.845Z,-4.57
2019-02-23T19:29:06.290Z,-4.54
2019-02-23T19:31:33.776Z,-4.44
2019-02-23T19:34:01.296Z,-4.44
2019-02-23T19:36:28.876Z,-4.54
2019-02-23T19:38:56.483Z,-4.40
2019-02-23T19:41:23.907Z,-4.40
2019-02-23T19:43:51.650Z,-4.56
2019-02-23T19:46:19.666Z,-4.67
2019-02-23T19:48:47.104Z,-3.98
2019-02-23T19:51:14.623Z,-4.07
2019-02-23T19:53:42.477Z,-4.08
2019-02-23T19:56:10.001Z,-4.08
2019-02-23T19:58:37.909Z,-4.04
2019-02-23T20:01:05.567Z,-3.99
2019-02-23T20:03:32.985Z,-3.85
2019-02-23T20:06:00.441Z,-4.07
2019-02-23T20:08:27.910Z,-3.80
2019-02-23T20:10:55.629Z,-3.80
2019-02-23T20:13:23.135Z,-4.19
2019-02-23T20:15:50.685Z,-4.31
2019-02-23T20:18:18.081Z,-4.31
2019-02-23T20:20:45.544Z,-4.34
2019-02-23T20:23:13.067Z,-4.27
2019-02-23T20:25:40.894Z,-4.16
2019-02-23T20:28:08.986Z,-4.16
2019-02-23T20:30:36.913Z,-4.49
2019-02-23T20:33:04.978Z,-4.49
2019-02-23T20:35:32.825Z,-4.48
2019-02-23T20:38:01.218Z,-4.43
2019-02-23T20:40:29.838Z,-4.40
2019-02-23T20:42:57.489Z,-4.38
2019-02-23T20:45:25.545Z,-4.43
2019-02-23T20:47:53.738Z,-4.10
2019-02-23T20:50:22.005Z,-4.02
2019-02-23T20:52:50.593Z,-4.02
2019-02-23T20:55:18.439Z,-3.98
2019-02-23T20:57:46.768Z,-4.15
2019-02-23T21:00:14.678Z,-4.15
2019-02-23T21:02:42.563Z,-4.48
2019-02-23T21:05:10.688Z,-4.26
2019-02-23T21:07:38.831Z,-4.42
2019-02-23T21:10:08.091Z,-4.42
2019-02-23T21:12:35.902Z,-4.33
2019-02-23T21:15:04.097Z,-3.93
2019-02-23T21:17:32.074Z,-3.93
2019-02-23T21:20:00.229Z,-3.74
2019-02-23T21:22:28.907Z,-3.95
2019-02-23T21:24:57.010Z,-3.40
2019-02-23T21:27:26.055Z,-3.40
2019-02-23T21:29:54.057Z,-3.62
2019-02-23T21:32:22.263Z,-3.53
2019-02-23T21:34:50.262Z,-3.19
2019-02-23T21:37:18.858Z,-3.03
2019-02-23T21:39:46.729Z,-3.10
2019-02-23T21:42:14.103Z,-3.00
2019-02-23T21:44:41.580Z,-2.89
2019-02-23T21:47:09.051Z,-2.84
2019-02-23T21:49:36.610Z,-2.80
2019-02-23T21:52:04.068Z,-2.67
2019-02-23T21:54:31.534Z,-3.01
2019-02-23T21:56:59.056Z,-2.85
2019-02-23T21:59:26.494Z,-2.84
2019-02-23T22:01:53.945Z,-3.33
2019-02-23T22:04:21.454Z,-3.19
2019-02-23T22:06:49.052Z,-3.30
2019-02-23T22:09:17.052Z,-3.29
2019-02-23T22:11:44.517Z,-3.12
2019-02-23T22:14:12.048Z,-2.91
2019-02-23T22:16:39.516Z,-3.00
2019-02-23T22:19:06.962Z,-3.00
2019-02-23T22:21:34.440Z,-2.90
2019-02-23T22:24:02.076Z,-2.96
2019-02-23T22:26:29.633Z,-3.04
2019-02-23T22:28:57.134Z,-3.22
2019-02-23T22:31:24.680Z,-3.08
2019-02-23T22:33:52.085Z,-2.92
2019-02-23T22:36:19.485Z,-3.07
2019-02-23T22:38:46.956Z,-3.32
2019-02-23T22:41:14.417Z,-3.54
2019-02-23T22:43:41.884Z,-3.53
2019-02-23T22:46:09.516Z,-3.53
2019-02-23T22:48:36.906Z,-3.44
2019-02-23T22:51:04.423Z,-3.64
2019-02-23T22:53:31.905Z,-3.64
2019-02-23T22:55:59.344Z,-4.10
2019-02-23T22:58:26.732Z,-4.30
2019-02-23T23:00:59.383Z,-4.30
2019-02-23T23:03:26.909Z,-4.28
2019-02-23T23:05:54.450Z,-4.63
2019-02-23T23:08:21.870Z,-4.63
2019-02-23T23:10:49.290Z,-4.69
2019-02-23T23:13:16.962Z,-4.64
2019-02-23T23:15:44.483Z,-4.63
2019-02-23T23:18:11.978Z,-4.44
2019-02-23T23:20:39.406Z,-4.44
2019-02-23T23:23:06.821Z,-4.59
2019-02-23T23:25:34.186Z,-4.80
2019-02-23T23:28:01.779Z,-5.00
2019-02-23T23:30:29.367Z,-4.89
2019-02-23T23:32:56.840Z,-4.80
2019-02-23T23:35:24.236Z,-4.88
2019-02-23T23:37:51.702Z,-5.17
2019-02-23T23:40:19.145Z,-5.17
2019-02-23T23:42:46.654Z,-5.14
2019-02-23T23:45:14.186Z,-4.86
2019-02-23T23:47:41.652Z,-4.63
2019-02-23T23:50:09.171Z,-4.43
2019-02-23T23:52:36.591Z,-4.35
2019-02-23T23:55:04.085Z,-4.18
2019-02-23T23:57:31.538Z,-4.05
2019-02-23T23:59:58.966Z,-4.25
